sensor_id;sensor_type;location;lat;lon;timestamp;P1;durP1;ratioP1;P2;durP2;ratioP2
17818;SDS011;9034;50.284;19.310;2023-01-16T00:00:06;17.77;;;12.18;;
17818;SDS011;9034;50.284;19.310;2023-01-16T00:01:10;15.32;;;11.52;;
17818;SDS011;9034;50.284;19.310;2023-01-16T00:02:12;17.17;;;13.20;;
17818;SDS011;9034;50.284;19.310;2023-01-16T00:03:15;16.27;;;12.82;;
17818;SDS011;9034;50.284;19.310;2023-01-16T00:04:17;18.15;;;12.48;;
17818;SDS011;9034;50.284;19.310;2023-01-16T00:05:21;18.30;;;12.73;;
17818;SDS011;9034;50.284;19.310;2023-01-16T00:06:23;18.27;;;12.52;;
17818;SDS011;9034;50.284;19.310;2023-01-16T00:07:25;18.67;;;13.73;;
17818;SDS011;9034;50.284;19.310;2023-01-16T00:08:28;18.95;;;13.80;;
17818;SDS011;9034;50.284;19.310;2023-01-16T00:09:30;25.08;;;14.32;;
17818;SDS011;9034;50.284;19.310;2023-01-16T00:10:32;18.23;;;13.00;;
17818;SDS011;9034;50.284;19.310;2023-01-16T00:11:35;21.70;;;13.93;;
17818;SDS011;9034;50.284;19.310;2023-01-16T00:12:37;21.50;;;13.77;;
17818;SDS011;9034;50.284;19.310;2023-01-16T00:13:40;21.65;;;14.27;;
17818;SDS011;9034;50.284;19.310;2023-01-16T00:14:45;23.60;;;14.65;;
17818;SDS011;9034;50.284;19.310;2023-01-16T00:15:49;24.45;;;14.75;;
17818;SDS011;9034;50.284;19.310;2023-01-16T00:16:53;36.20;;;19.02;;
17818;SDS011;9034;50.284;19.310;2023-01-16T00:17:56;50.83;;;23.58;;
17818;SDS011;9034;50.284;19.310;2023-01-16T00:18:58;36.33;;;19.35;;
17818;SDS011;9034;50.284;19.310;2023-01-16T00:20:01;37.88;;;20.00;;
17818;SDS011;9034;50.284;19.310;2023-01-16T00:21:05;31.00;;;14.75;;
17818;SDS011;9034;50.284;19.310;2023-01-16T00:22:10;40.55;;;21.08;;
17818;SDS011;9034;50.284;19.310;2023-01-16T00:23:14;51.53;;;23.02;;
17818;SDS011;9034;50.284;19.310;2023-01-16T00:24:17;38.17;;;19.98;;
17818;SDS011;9034;50.284;19.310;2023-01-16T00:25:19;38.58;;;20.67;;
17818;SDS011;9034;50.284;19.310;2023-01-16T00:26:23;35.10;;;19.50;;
17818;SDS011;9034;50.284;19.310;2023-01-16T00:27:25;34.95;;;19.25;;
17818;SDS011;9034;50.284;19.310;2023-01-16T00:28:29;27.67;;;14.02;;
17818;SDS011;9034;50.284;19.310;2023-01-16T00:29:31;20.25;;;11.98;;
17818;SDS011;9034;50.284;19.310;2023-01-16T00:30:34;43.03;;;19.35;;
17818;SDS011;9034;50.284;19.310;2023-01-16T00:31:36;33.28;;;18.17;;
17818;SDS011;9034;50.284;19.310;2023-01-16T00:32:39;36.35;;;18.70;;
17818;SDS011;9034;50.284;19.310;2023-01-16T00:33:42;24.90;;;12.40;;
17818;SDS011;9034;50.284;19.310;2023-01-16T00:34:45;24.58;;;12.75;;
17818;SDS011;9034;50.284;19.310;2023-01-16T00:35:46;27.35;;;16.45;;
17818;SDS011;9034;50.284;19.310;2023-01-16T00:36:51;30.27;;;17.08;;
17818;SDS011;9034;50.284;19.310;2023-01-16T00:37:53;26.10;;;16.70;;
17818;SDS011;9034;50.284;19.310;2023-01-16T00:38:55;21.63;;;12.25;;
17818;SDS011;9034;50.284;19.310;2023-01-16T00:39:58;21.75;;;12.10;;
17818;SDS011;9034;50.284;19.310;2023-01-16T00:41:00;23.75;;;12.63;;
17818;SDS011;9034;50.284;19.310;2023-01-16T00:42:03;36.83;;;18.08;;
17818;SDS011;9034;50.284;19.310;2023-01-16T00:43:05;50.28;;;21.10;;
17818;SDS011;9034;50.284;19.310;2023-01-16T00:44:08;41.42;;;19.63;;
17818;SDS011;9034;50.284;19.310;2023-01-16T00:45:10;24.35;;;12.25;;
17818;SDS011;9034;50.284;19.310;2023-01-16T00:46:13;26.73;;;12.35;;
17818;SDS011;9034;50.284;19.310;2023-01-16T00:47:16;25.23;;;12.60;;
17818;SDS011;9034;50.284;19.310;2023-01-16T00:48:19;23.70;;;12.30;;
17818;SDS011;9034;50.284;19.310;2023-01-16T00:49:22;30.88;;;17.33;;
17818;SDS011;9034;50.284;19.310;2023-01-16T00:50:24;57.42;;;21.73;;
17818;SDS011;9034;50.284;19.310;2023-01-16T00:51:27;25.50;;;13.05;;
17818;SDS011;9034;50.284;19.310;2023-01-16T00:52:30;22.17;;;12.77;;
17818;SDS011;9034;50.284;19.310;2023-01-16T00:53:34;25.25;;;12.50;;
17818;SDS011;9034;50.284;19.310;2023-01-16T00:54:36;32.03;;;14.02;;
17818;SDS011;9034;50.284;19.310;2023-01-16T00:55:39;43.72;;;13.88;;
17818;SDS011;9034;50.284;19.310;2023-01-16T00:56:42;79.95;;;23.17;;
17818;SDS011;9034;50.284;19.310;2023-01-16T00:57:45;43.50;;;18.58;;
17818;SDS011;9034;50.284;19.310;2023-01-16T00:58:47;103.40;;;26.75;;
17818;SDS011;9034;50.284;19.310;2023-01-16T00:59:50;23.58;;;11.57;;
17818;SDS011;9034;50.284;19.310;2023-01-16T01:00:52;32.72;;;12.80;;
17818;SDS011;9034;50.284;19.310;2023-01-16T01:01:55;34.60;;;12.25;;
17818;SDS011;9034;50.284;19.310;2023-01-16T01:02:57;55.92;;;19.88;;
17818;SDS011;9034;50.284;19.310;2023-01-16T01:03:59;41.13;;;15.93;;
17818;SDS011;9034;50.284;19.310;2023-01-16T01:05:02;23.60;;;12.00;;
17818;SDS011;9034;50.284;19.310;2023-01-16T01:06:09;31.42;;;13.18;;
17818;SDS011;9034;50.284;19.310;2023-01-16T01:07:15;26.45;;;12.15;;
17818;SDS011;9034;50.284;19.310;2023-01-16T01:08:20;26.48;;;12.82;;
17818;SDS011;9034;50.284;19.310;2023-01-16T01:09:22;33.17;;;12.85;;
17818;SDS011;9034;50.284;19.310;2023-01-16T01:10:25;32.33;;;12.07;;
17818;SDS011;9034;50.284;19.310;2023-01-16T01:11:27;33.00;;;12.98;;
17818;SDS011;9034;50.284;19.310;2023-01-16T01:12:30;32.28;;;14.40;;
17818;SDS011;9034;50.284;19.310;2023-01-16T01:13:32;63.92;;;21.05;;
17818;SDS011;9034;50.284;19.310;2023-01-16T01:14:35;27.60;;;12.27;;
17818;SDS011;9034;50.284;19.310;2023-01-16T01:15:36;42.67;;;14.30;;
17818;SDS011;9034;50.284;19.310;2023-01-16T01:16:39;70.65;;;15.55;;
17818;SDS011;9034;50.284;19.310;2023-01-16T01:17:41;47.42;;;14.95;;
17818;SDS011;9034;50.284;19.310;2023-01-16T01:18:44;119.45;;;19.83;;
17818;SDS011;9034;50.284;19.310;2023-01-16T01:19:49;178.48;;;19.95;;
17818;SDS011;9034;50.284;19.310;2023-01-16T01:20:52;190.82;;;26.30;;
17818;SDS011;9034;50.284;19.310;2023-01-16T01:21:54;88.13;;;17.02;;
17818;SDS011;9034;50.284;19.310;2023-01-16T01:22:56;64.20;;;15.38;;
17818;SDS011;9034;50.284;19.310;2023-01-16T01:24:00;82.38;;;19.75;;
17818;SDS011;9034;50.284;19.310;2023-01-16T01:25:03;150.93;;;24.48;;
17818;SDS011;9034;50.284;19.310;2023-01-16T01:26:09;68.47;;;16.50;;
17818;SDS011;9034;50.284;19.310;2023-01-16T01:27:16;130.38;;;20.23;;
17818;SDS011;9034;50.284;19.310;2023-01-16T01:28:18;104.55;;;18.40;;
17818;SDS011;9034;50.284;19.310;2023-01-16T01:29:21;134.38;;;23.77;;
17818;SDS011;9034;50.284;19.310;2023-01-16T01:30:23;203.65;;;27.40;;
17818;SDS011;9034;50.284;19.310;2023-01-16T01:31:26;134.90;;;21.40;;
17818;SDS011;9034;50.284;19.310;2023-01-16T01:32:27;77.55;;;16.02;;
17818;SDS011;9034;50.284;19.310;2023-01-16T01:33:31;98.97;;;17.50;;
17818;SDS011;9034;50.284;19.310;2023-01-16T01:34:33;109.32;;;20.75;;
17818;SDS011;9034;50.284;19.310;2023-01-16T01:35:36;240.52;;;29.33;;
17818;SDS011;9034;50.284;19.310;2023-01-16T01:36:38;325.65;;;41.25;;
17818;SDS011;9034;50.284;19.310;2023-01-16T01:37:41;86.07;;;19.63;;
17818;SDS011;9034;50.284;19.310;2023-01-16T01:38:43;117.55;;;20.35;;
17818;SDS011;9034;50.284;19.310;2023-01-16T01:39:49;76.15;;;17.55;;
17818;SDS011;9034;50.284;19.310;2023-01-16T01:40:51;81.95;;;18.27;;
17818;SDS011;9034;50.284;19.310;2023-01-16T01:41:55;55.95;;;14.40;;
17818;SDS011;9034;50.284;19.310;2023-01-16T01:43:18;69.32;;;15.95;;
17818;SDS011;9034;50.284;19.310;2023-01-16T01:44:44;42.30;;;14.27;;
17818;SDS011;9034;50.284;19.310;2023-01-16T01:45:51;26.90;;;12.73;;
17818;SDS011;9034;50.284;19.310;2023-01-16T01:46:55;31.38;;;12.50;;
17818;SDS011;9034;50.284;19.310;2023-01-16T01:47:59;24.65;;;12.30;;
17818;SDS011;9034;50.284;19.310;2023-01-16T01:49:05;30.33;;;13.45;;
17818;SDS011;9034;50.284;19.310;2023-01-16T01:50:12;44.30;;;15.07;;
17818;SDS011;9034;50.284;19.310;2023-01-16T01:51:19;25.38;;;12.93;;
17818;SDS011;9034;50.284;19.310;2023-01-16T01:52:23;19.80;;;11.77;;
17818;SDS011;9034;50.284;19.310;2023-01-16T01:53:27;27.45;;;12.57;;
17818;SDS011;9034;50.284;19.310;2023-01-16T01:54:32;26.67;;;12.82;;
17818;SDS011;9034;50.284;19.310;2023-01-16T01:55:38;22.30;;;12.38;;
17818;SDS011;9034;50.284;19.310;2023-01-16T01:56:43;32.03;;;14.23;;
17818;SDS011;9034;50.284;19.310;2023-01-16T01:57:48;22.40;;;11.63;;
17818;SDS011;9034;50.284;19.310;2023-01-16T01:58:54;41.35;;;14.57;;
17818;SDS011;9034;50.284;19.310;2023-01-16T01:59:58;359.63;;;40.65;;
17818;SDS011;9034;50.284;19.310;2023-01-16T02:01:12;143.57;;;25.45;;
17818;SDS011;9034;50.284;19.310;2023-01-16T02:02:14;78.15;;;19.30;;
17818;SDS011;9034;50.284;19.310;2023-01-16T02:03:21;51.78;;;15.85;;
17818;SDS011;9034;50.284;19.310;2023-01-16T02:04:29;28.00;;;13.93;;
17818;SDS011;9034;50.284;19.310;2023-01-16T02:05:34;27.27;;;13.40;;
17818;SDS011;9034;50.284;19.310;2023-01-16T02:06:46;29.13;;;13.63;;
17818;SDS011;9034;50.284;19.310;2023-01-16T02:07:50;22.70;;;11.88;;
17818;SDS011;9034;50.284;19.310;2023-01-16T02:08:53;22.58;;;12.77;;
17818;SDS011;9034;50.284;19.310;2023-01-16T02:10:00;31.35;;;14.10;;
17818;SDS011;9034;50.284;19.310;2023-01-16T02:11:06;24.30;;;12.63;;
17818;SDS011;9034;50.284;19.310;2023-01-16T02:12:27;21.48;;;11.07;;
17818;SDS011;9034;50.284;19.310;2023-01-16T02:13:29;22.88;;;11.85;;
17818;SDS011;9034;50.284;19.310;2023-01-16T02:14:33;25.95;;;12.70;;
17818;SDS011;9034;50.284;19.310;2023-01-16T02:15:37;24.58;;;13.30;;
17818;SDS011;9034;50.284;19.310;2023-01-16T02:17:03;32.92;;;16.58;;
17818;SDS011;9034;50.284;19.310;2023-01-16T02:18:25;22.27;;;12.52;;
17818;SDS011;9034;50.284;19.310;2023-01-16T02:19:48;23.45;;;12.88;;
17818;SDS011;9034;50.284;19.310;2023-01-16T02:20:55;19.17;;;12.02;;
17818;SDS011;9034;50.284;19.310;2023-01-16T02:22:11;22.60;;;12.90;;
17818;SDS011;9034;50.284;19.310;2023-01-16T02:23:47;28.80;;;15.07;;
17818;SDS011;9034;50.284;19.310;2023-01-16T02:26:43;26.10;;;11.95;;
17818;SDS011;9034;50.284;19.310;2023-01-16T02:28:00;26.45;;;13.27;;
17818;SDS011;9034;50.284;19.310;2023-01-16T02:31:04;23.58;;;10.90;;
17818;SDS011;9034;50.284;19.310;2023-01-16T02:32:13;20.98;;;12.18;;
17818;SDS011;9034;50.284;19.310;2023-01-16T02:33:25;23.33;;;12.18;;
17818;SDS011;9034;50.284;19.310;2023-01-16T02:34:34;23.08;;;10.93;;
17818;SDS011;9034;50.284;19.310;2023-01-16T02:35:47;21.67;;;11.35;;
17818;SDS011;9034;50.284;19.310;2023-01-16T02:36:56;19.25;;;10.85;;
17818;SDS011;9034;50.284;19.310;2023-01-16T02:38:05;24.55;;;11.73;;
17818;SDS011;9034;50.284;19.310;2023-01-16T02:39:11;21.88;;;11.68;;
17818;SDS011;9034;50.284;19.310;2023-01-16T02:40:23;21.38;;;10.80;;
17818;SDS011;9034;50.284;19.310;2023-01-16T02:41:32;21.75;;;11.70;;
17818;SDS011;9034;50.284;19.310;2023-01-16T02:42:44;20.25;;;11.88;;
17818;SDS011;9034;50.284;19.310;2023-01-16T02:43:48;24.73;;;12.25;;
17818;SDS011;9034;50.284;19.310;2023-01-16T02:44:57;25.10;;;12.32;;
17818;SDS011;9034;50.284;19.310;2023-01-16T02:46:08;32.45;;;14.18;;
17818;SDS011;9034;50.284;19.310;2023-01-16T02:47:14;33.80;;;15.82;;
17818;SDS011;9034;50.284;19.310;2023-01-16T02:48:21;33.45;;;15.18;;
17818;SDS011;9034;50.284;19.310;2023-01-16T02:49:29;35.85;;;15.18;;
17818;SDS011;9034;50.284;19.310;2023-01-16T02:50:36;37.55;;;15.55;;
17818;SDS011;9034;50.284;19.310;2023-01-16T02:51:43;46.13;;;18.55;;
17818;SDS011;9034;50.284;19.310;2023-01-16T02:52:48;48.33;;;22.05;;
17818;SDS011;9034;50.284;19.310;2023-01-16T02:53:56;80.32;;;27.77;;
17818;SDS011;9034;50.284;19.310;2023-01-16T02:55:02;333.58;;;72.47;;
17818;SDS011;9034;50.284;19.310;2023-01-16T02:56:07;131.13;;;38.72;;
17818;SDS011;9034;50.284;19.310;2023-01-16T02:57:11;163.63;;;51.78;;
17818;SDS011;9034;50.284;19.310;2023-01-16T02:58:16;345.90;;;78.43;;
17818;SDS011;9034;50.284;19.310;2023-01-16T02:59:19;277.08;;;70.47;;
17818;SDS011;9034;50.284;19.310;2023-01-16T03:00:24;171.27;;;53.63;;
17818;SDS011;9034;50.284;19.310;2023-01-16T03:01:28;151.27;;;51.10;;
17818;SDS011;9034;50.284;19.310;2023-01-16T03:02:31;158.55;;;54.78;;
17818;SDS011;9034;50.284;19.310;2023-01-16T03:03:37;178.55;;;59.38;;
17818;SDS011;9034;50.284;19.310;2023-01-16T03:04:43;151.90;;;50.80;;
17818;SDS011;9034;50.284;19.310;2023-01-16T03:05:46;113.88;;;40.67;;
17818;SDS011;9034;50.284;19.310;2023-01-16T03:06:52;96.75;;;37.05;;
17818;SDS011;9034;50.284;19.310;2023-01-16T03:09:32;71.63;;;29.63;;
17818;SDS011;9034;50.284;19.310;2023-01-16T03:10:41;69.72;;;30.13;;
17818;SDS011;9034;50.284;19.310;2023-01-16T03:12:00;66.07;;;24.30;;
17818;SDS011;9034;50.284;19.310;2023-01-16T03:13:12;48.60;;;22.27;;
17818;SDS011;9034;50.284;19.310;2023-01-16T03:14:24;46.17;;;18.45;;
17818;SDS011;9034;50.284;19.310;2023-01-16T03:15:32;57.95;;;25.48;;
17818;SDS011;9034;50.284;19.310;2023-01-16T03:16:43;91.97;;;28.33;;
17818;SDS011;9034;50.284;19.310;2023-01-16T03:18:05;130.70;;;38.35;;
17818;SDS011;9034;50.284;19.310;2023-01-16T03:19:16;95.05;;;33.95;;
17818;SDS011;9034;50.284;19.310;2023-01-16T03:20:26;193.73;;;42.58;;
17818;SDS011;9034;50.284;19.310;2023-01-16T03:21:35;79.32;;;26.38;;
17818;SDS011;9034;50.284;19.310;2023-01-16T03:22:44;47.47;;;21.08;;
17818;SDS011;9034;50.284;19.310;2023-01-16T03:23:53;25.77;;;13.85;;
17818;SDS011;9034;50.284;19.310;2023-01-16T03:25:02;44.10;;;20.65;;
17818;SDS011;9034;50.284;19.310;2023-01-16T03:26:24;40.13;;;19.25;;
17818;SDS011;9034;50.284;19.310;2023-01-16T03:27:31;33.83;;;16.50;;
17818;SDS011;9034;50.284;19.310;2023-01-16T03:28:42;26.60;;;13.38;;
17818;SDS011;9034;50.284;19.310;2023-01-16T03:29:50;24.65;;;12.98;;
17818;SDS011;9034;50.284;19.310;2023-01-16T03:30:57;22.95;;;11.60;;
17818;SDS011;9034;50.284;19.310;2023-01-16T03:32:09;25.08;;;12.90;;
17818;SDS011;9034;50.284;19.310;2023-01-16T03:33:16;27.17;;;12.45;;
17818;SDS011;9034;50.284;19.310;2023-01-16T03:34:26;23.38;;;12.02;;
17818;SDS011;9034;50.284;19.310;2023-01-16T03:35:31;26.67;;;13.88;;
17818;SDS011;9034;50.284;19.310;2023-01-16T03:36:37;28.25;;;14.02;;
17818;SDS011;9034;50.284;19.310;2023-01-16T03:37:43;30.48;;;15.27;;
17818;SDS011;9034;50.284;19.310;2023-01-16T03:38:48;44.70;;;22.40;;
17818;SDS011;9034;50.284;19.310;2023-01-16T03:39:52;36.15;;;19.95;;
17818;SDS011;9034;50.284;19.310;2023-01-16T03:40:59;32.78;;;15.55;;
17818;SDS011;9034;50.284;19.310;2023-01-16T03:42:05;34.15;;;17.60;;
17818;SDS011;9034;50.284;19.310;2023-01-16T03:43:10;37.10;;;19.80;;
17818;SDS011;9034;50.284;19.310;2023-01-16T03:44:18;41.13;;;19.45;;
17818;SDS011;9034;50.284;19.310;2023-01-16T03:45:27;27.17;;;14.93;;
17818;SDS011;9034;50.284;19.310;2023-01-16T03:46:35;34.85;;;17.00;;
17818;SDS011;9034;50.284;19.310;2023-01-16T03:47:42;39.40;;;18.10;;
17818;SDS011;9034;50.284;19.310;2023-01-16T03:48:49;37.20;;;19.23;;
17818;SDS011;9034;50.284;19.310;2023-01-16T03:49:54;33.10;;;18.85;;
17818;SDS011;9034;50.284;19.310;2023-01-16T03:50:58;39.63;;;18.80;;
17818;SDS011;9034;50.284;19.310;2023-01-16T03:52:04;41.70;;;18.58;;
17818;SDS011;9034;50.284;19.310;2023-01-16T03:53:07;45.80;;;20.15;;
17818;SDS011;9034;50.284;19.310;2023-01-16T03:54:15;43.45;;;18.38;;
17818;SDS011;9034;50.284;19.310;2023-01-16T03:55:25;30.70;;;16.40;;
17818;SDS011;9034;50.284;19.310;2023-01-16T03:56:32;33.45;;;16.17;;
17818;SDS011;9034;50.284;19.310;2023-01-16T03:57:37;60.47;;;26.13;;
17818;SDS011;9034;50.284;19.310;2023-01-16T03:58:44;46.40;;;22.40;;
17818;SDS011;9034;50.284;19.310;2023-01-16T03:59:47;39.20;;;18.98;;
17818;SDS011;9034;50.284;19.310;2023-01-16T04:00:52;33.13;;;17.90;;
17818;SDS011;9034;50.284;19.310;2023-01-16T04:02:00;37.95;;;18.77;;
17818;SDS011;9034;50.284;19.310;2023-01-16T04:03:08;38.05;;;17.77;;
17818;SDS011;9034;50.284;19.310;2023-01-16T04:04:14;37.38;;;18.25;;
17818;SDS011;9034;50.284;19.310;2023-01-16T04:05:19;39.38;;;19.25;;
17818;SDS011;9034;50.284;19.310;2023-01-16T04:06:24;40.33;;;19.42;;
17818;SDS011;9034;50.284;19.310;2023-01-16T04:07:31;35.50;;;17.80;;
17818;SDS011;9034;50.284;19.310;2023-01-16T04:08:37;36.55;;;19.88;;
17818;SDS011;9034;50.284;19.310;2023-01-16T04:09:46;42.42;;;20.10;;
17818;SDS011;9034;50.284;19.310;2023-01-16T04:10:50;38.80;;;19.00;;
17818;SDS011;9034;50.284;19.310;2023-01-16T04:11:54;44.47;;;20.83;;
17818;SDS011;9034;50.284;19.310;2023-01-16T04:12:57;39.20;;;18.98;;
17818;SDS011;9034;50.284;19.310;2023-01-16T04:14:01;45.03;;;19.40;;
17818;SDS011;9034;50.284;19.310;2023-01-16T04:15:06;41.38;;;20.05;;
17818;SDS011;9034;50.284;19.310;2023-01-16T04:16:10;38.67;;;19.73;;
17818;SDS011;9034;50.284;19.310;2023-01-16T04:17:15;29.70;;;16.42;;
17818;SDS011;9034;50.284;19.310;2023-01-16T04:18:20;29.40;;;16.13;;
17818;SDS011;9034;50.284;19.310;2023-01-16T04:19:22;30.90;;;15.48;;
17818;SDS011;9034;50.284;19.310;2023-01-16T04:20:26;26.77;;;15.07;;
17818;SDS011;9034;50.284;19.310;2023-01-16T04:21:30;30.65;;;15.93;;
17818;SDS011;9034;50.284;19.310;2023-01-16T04:22:33;26.05;;;14.30;;
17818;SDS011;9034;50.284;19.310;2023-01-16T04:23:35;26.40;;;13.73;;
17818;SDS011;9034;50.284;19.310;2023-01-16T04:24:38;28.60;;;14.98;;
17818;SDS011;9034;50.284;19.310;2023-01-16T04:25:40;32.17;;;16.02;;
17818;SDS011;9034;50.284;19.310;2023-01-16T04:26:43;30.50;;;14.68;;
17818;SDS011;9034;50.284;19.310;2023-01-16T04:27:45;24.05;;;13.65;;
17818;SDS011;9034;50.284;19.310;2023-01-16T04:28:48;23.67;;;13.13;;
17818;SDS011;9034;50.284;19.310;2023-01-16T04:29:54;28.45;;;14.20;;
17818;SDS011;9034;50.284;19.310;2023-01-16T04:30:57;27.90;;;14.52;;
17818;SDS011;9034;50.284;19.310;2023-01-16T04:31:59;27.60;;;14.48;;
17818;SDS011;9034;50.284;19.310;2023-01-16T04:33:02;27.92;;;14.50;;
17818;SDS011;9034;50.284;19.310;2023-01-16T04:34:06;26.40;;;14.27;;
17818;SDS011;9034;50.284;19.310;2023-01-16T04:35:09;25.33;;;13.43;;
17818;SDS011;9034;50.284;19.310;2023-01-16T04:36:11;27.05;;;14.77;;
17818;SDS011;9034;50.284;19.310;2023-01-16T04:37:15;30.65;;;14.60;;
17818;SDS011;9034;50.284;19.310;2023-01-16T04:38:18;25.95;;;14.63;;
17818;SDS011;9034;50.284;19.310;2023-01-16T04:39:20;25.27;;;14.90;;
17818;SDS011;9034;50.284;19.310;2023-01-16T04:40:23;27.80;;;14.40;;
17818;SDS011;9034;50.284;19.310;2023-01-16T04:41:25;24.75;;;14.02;;
17818;SDS011;9034;50.284;19.310;2023-01-16T04:42:41;22.23;;;13.63;;
17818;SDS011;9034;50.284;19.310;2023-01-16T04:43:43;25.20;;;13.68;;
17818;SDS011;9034;50.284;19.310;2023-01-16T04:44:46;22.02;;;13.25;;
17818;SDS011;9034;50.284;19.310;2023-01-16T04:45:48;24.38;;;12.82;;
17818;SDS011;9034;50.284;19.310;2023-01-16T04:46:51;26.23;;;14.50;;
17818;SDS011;9034;50.284;19.310;2023-01-16T04:47:53;25.35;;;14.55;;
17818;SDS011;9034;50.284;19.310;2023-01-16T04:48:55;26.08;;;13.55;;
17818;SDS011;9034;50.284;19.310;2023-01-16T04:49:58;25.25;;;14.68;;
17818;SDS011;9034;50.284;19.310;2023-01-16T04:51:01;23.00;;;13.25;;
17818;SDS011;9034;50.284;19.310;2023-01-16T04:52:03;24.77;;;14.55;;
17818;SDS011;9034;50.284;19.310;2023-01-16T04:53:06;24.50;;;14.23;;
17818;SDS011;9034;50.284;19.310;2023-01-16T04:54:09;26.40;;;14.90;;
17818;SDS011;9034;50.284;19.310;2023-01-16T04:55:16;23.55;;;13.07;;
17818;SDS011;9034;50.284;19.310;2023-01-16T04:56:19;23.98;;;14.27;;
17818;SDS011;9034;50.284;19.310;2023-01-16T04:57:21;26.23;;;15.40;;
17818;SDS011;9034;50.284;19.310;2023-01-16T04:58:24;29.08;;;16.30;;
17818;SDS011;9034;50.284;19.310;2023-01-16T04:59:25;27.38;;;14.68;;
17818;SDS011;9034;50.284;19.310;2023-01-16T05:00:29;28.00;;;14.70;;
17818;SDS011;9034;50.284;19.310;2023-01-16T05:01:30;26.65;;;15.00;;
17818;SDS011;9034;50.284;19.310;2023-01-16T05:02:36;28.75;;;15.25;;
17818;SDS011;9034;50.284;19.310;2023-01-16T05:03:38;30.05;;;16.27;;
17818;SDS011;9034;50.284;19.310;2023-01-16T05:04:41;30.80;;;16.58;;
17818;SDS011;9034;50.284;19.310;2023-01-16T05:05:45;32.55;;;16.65;;
17818;SDS011;9034;50.284;19.310;2023-01-16T05:06:48;32.00;;;17.38;;
17818;SDS011;9034;50.284;19.310;2023-01-16T05:07:50;31.65;;;17.90;;
17818;SDS011;9034;50.284;19.310;2023-01-16T05:09:12;34.95;;;17.48;;
17818;SDS011;9034;50.284;19.310;2023-01-16T05:10:15;33.45;;;17.88;;
17818;SDS011;9034;50.284;19.310;2023-01-16T05:11:18;33.00;;;18.90;;
17818;SDS011;9034;50.284;19.310;2023-01-16T05:12:20;36.10;;;18.45;;
17818;SDS011;9034;50.284;19.310;2023-01-16T05:13:23;34.42;;;17.40;;
17818;SDS011;9034;50.284;19.310;2023-01-16T05:14:24;38.15;;;19.08;;
17818;SDS011;9034;50.284;19.310;2023-01-16T05:15:27;33.63;;;18.42;;
17818;SDS011;9034;50.284;19.310;2023-01-16T05:16:30;33.42;;;17.45;;
17818;SDS011;9034;50.284;19.310;2023-01-16T05:17:32;36.88;;;18.85;;
17818;SDS011;9034;50.284;19.310;2023-01-16T05:18:34;37.40;;;18.60;;
17818;SDS011;9034;50.284;19.310;2023-01-16T05:19:37;34.92;;;19.63;;
17818;SDS011;9034;50.284;19.310;2023-01-16T05:20:39;34.83;;;18.75;;
17818;SDS011;9034;50.284;19.310;2023-01-16T05:21:43;32.13;;;17.92;;
17818;SDS011;9034;50.284;19.310;2023-01-16T05:22:46;33.33;;;16.80;;
17818;SDS011;9034;50.284;19.310;2023-01-16T05:23:49;34.17;;;17.80;;
17818;SDS011;9034;50.284;19.310;2023-01-16T05:24:51;38.85;;;18.70;;
17818;SDS011;9034;50.284;19.310;2023-01-16T05:25:54;31.45;;;16.92;;
17818;SDS011;9034;50.284;19.310;2023-01-16T05:26:56;27.65;;;16.27;;
17818;SDS011;9034;50.284;19.310;2023-01-16T05:27:59;27.10;;;16.13;;
17818;SDS011;9034;50.284;19.310;2023-01-16T05:29:01;28.83;;;16.25;;
17818;SDS011;9034;50.284;19.310;2023-01-16T05:30:04;28.55;;;15.75;;
17818;SDS011;9034;50.284;19.310;2023-01-16T05:31:06;32.08;;;16.38;;
17818;SDS011;9034;50.284;19.310;2023-01-16T05:32:09;34.95;;;16.90;;
17818;SDS011;9034;50.284;19.310;2023-01-16T05:33:12;33.47;;;16.77;;
17818;SDS011;9034;50.284;19.310;2023-01-16T05:34:13;32.50;;;16.83;;
17818;SDS011;9034;50.284;19.310;2023-01-16T05:35:16;31.73;;;16.90;;
17818;SDS011;9034;50.284;19.310;2023-01-16T05:36:18;30.33;;;16.42;;
17818;SDS011;9034;50.284;19.310;2023-01-16T05:37:23;31.23;;;16.65;;
17818;SDS011;9034;50.284;19.310;2023-01-16T05:38:25;27.75;;;16.88;;
17818;SDS011;9034;50.284;19.310;2023-01-16T05:39:27;30.35;;;16.90;;
17818;SDS011;9034;50.284;19.310;2023-01-16T05:40:30;30.67;;;17.33;;
17818;SDS011;9034;50.284;19.310;2023-01-16T05:41:32;32.42;;;16.85;;
17818;SDS011;9034;50.284;19.310;2023-01-16T05:42:35;29.23;;;16.50;;
17818;SDS011;9034;50.284;19.310;2023-01-16T05:43:37;31.63;;;17.50;;
17818;SDS011;9034;50.284;19.310;2023-01-16T05:44:40;30.98;;;16.13;;
17818;SDS011;9034;50.284;19.310;2023-01-16T05:45:42;26.15;;;15.30;;
17818;SDS011;9034;50.284;19.310;2023-01-16T05:46:45;24.25;;;14.48;;
17818;SDS011;9034;50.284;19.310;2023-01-16T05:47:48;24.88;;;14.98;;
17818;SDS011;9034;50.284;19.310;2023-01-16T05:48:50;34.05;;;18.42;;
17818;SDS011;9034;50.284;19.310;2023-01-16T05:49:52;36.17;;;17.80;;
17818;SDS011;9034;50.284;19.310;2023-01-16T05:50:55;37.22;;;17.98;;
17818;SDS011;9034;50.284;19.310;2023-01-16T05:51:57;36.83;;;18.15;;
17818;SDS011;9034;50.284;19.310;2023-01-16T05:53:01;31.20;;;17.33;;
17818;SDS011;9034;50.284;19.310;2023-01-16T05:54:04;33.80;;;17.23;;
17818;SDS011;9034;50.284;19.310;2023-01-16T05:55:06;35.85;;;18.70;;
17818;SDS011;9034;50.284;19.310;2023-01-16T05:56:10;33.40;;;18.77;;
17818;SDS011;9034;50.284;19.310;2023-01-16T05:57:13;29.30;;;18.17;;
17818;SDS011;9034;50.284;19.310;2023-01-16T05:58:16;34.28;;;15.82;;
17818;SDS011;9034;50.284;19.310;2023-01-16T05:59:19;30.38;;;16.60;;
17818;SDS011;9034;50.284;19.310;2023-01-16T06:00:20;26.08;;;15.73;;
17818;SDS011;9034;50.284;19.310;2023-01-16T06:01:24;30.67;;;16.42;;
17818;SDS011;9034;50.284;19.310;2023-01-16T06:02:26;29.80;;;16.00;;
17818;SDS011;9034;50.284;19.310;2023-01-16T06:03:29;48.33;;;19.23;;
17818;SDS011;9034;50.284;19.310;2023-01-16T06:04:31;71.55;;;18.88;;
17818;SDS011;9034;50.284;19.310;2023-01-16T06:05:34;38.97;;;18.00;;
17818;SDS011;9034;50.284;19.310;2023-01-16T06:06:37;66.85;;;20.55;;
17818;SDS011;9034;50.284;19.310;2023-01-16T06:07:40;142.80;;;24.83;;
17818;SDS011;9034;50.284;19.310;2023-01-16T06:08:44;61.05;;;27.30;;
17818;SDS011;9034;50.284;19.310;2023-01-16T06:09:48;48.92;;;20.55;;
17818;SDS011;9034;50.284;19.310;2023-01-16T06:10:50;33.58;;;18.15;;
17818;SDS011;9034;50.284;19.310;2023-01-16T06:11:52;32.92;;;17.48;;
17818;SDS011;9034;50.284;19.310;2023-01-16T06:12:55;54.88;;;26.65;;
17818;SDS011;9034;50.284;19.310;2023-01-16T06:13:57;45.92;;;24.50;;
17818;SDS011;9034;50.284;19.310;2023-01-16T06:15:04;40.97;;;21.45;;
17818;SDS011;9034;50.284;19.310;2023-01-16T06:16:09;46.97;;;24.05;;
17818;SDS011;9034;50.284;19.310;2023-01-16T06:17:11;35.55;;;18.17;;
17818;SDS011;9034;50.284;19.310;2023-01-16T06:18:15;30.20;;;18.25;;
17818;SDS011;9034;50.284;19.310;2023-01-16T06:19:18;34.45;;;19.42;;
17818;SDS011;9034;50.284;19.310;2023-01-16T06:20:21;40.90;;;20.13;;
17818;SDS011;9034;50.284;19.310;2023-01-16T06:21:24;32.90;;;18.08;;
17818;SDS011;9034;50.284;19.310;2023-01-16T06:22:26;30.88;;;17.50;;
17818;SDS011;9034;50.284;19.310;2023-01-16T06:23:29;28.20;;;16.58;;
17818;SDS011;9034;50.284;19.310;2023-01-16T06:24:33;34.17;;;16.58;;